Time;durP1;ratioP1;P1;durP2;ratioP2;P2;SDS_P1;SDS_P2;PMS_P1;PMS_P2;Temp;Humidity;BMP_temperature;BMP_pressure;BME280_temperature;BME280_humidity;BME280_pressure;Samples;Min_cycle;Max_cycle;Signal;HPM_P1;HPM_P2
2021/03/24 00:00:34;;;;;;;4.48;2.05;;;;;;;-1.62;60.14;99138.91;370191;109;1961997;-71
2021/03/24 00:01:40;;;;;;;2.97;1.48;;;;;;;-1.64;60.00;99140.86;334670;109;2027888;-72
2021/03/24 00:02:46;;;;;;;4.94;1.79;;;;;;;-1.64;60.07;99139.07;370025;109;1961924;-71
2021/03/24 00:03:53;;;;;;;5.32;1.53;;;;;;;-1.62;60.13;99142.39;370048;109;1962923;-71
2021/03/24 00:04:58;;;;;;;6.04;1.61;;;;;;;-1.63;60.12;99145.20;359183;109;1961978;-71
2021/03/24 00:06:04;;;;;;;3.34;1.87;;;;;;;-1.65;60.05;99137.38;368091;109;1961973;-72
2021/03/24 00:07:11;;;;;;;4.01;1.82;;;;;;;-1.65;60.33;99155.91;369182;107;1961905;-71
2021/03/24 00:08:22;;;;;;;5.46;1.60;;;;;;;-1.66;60.65;99141.02;369882;108;1962044;-71
2021/03/24 00:09:39;;;;;;;6.59;1.71;;;;;;;-1.66;60.63;99143.66;360227;111;1961982;-71
2021/03/24 00:10:46;;;;;;;4.36;1.59;;;;;;;-1.64;60.72;99143.50;356993;111;1962009;-71
2021/03/24 00:11:52;;;;;;;5.90;1.54;;;;;;;-1.61;60.76;99144.08;353439;113;1962058;-71
2021/03/24 00:12:59;;;;;;;4.31;1.35;;;;;;;-1.61;60.47;99141.43;330340;113;2404938;-72
2021/03/24 00:14:05;;;;;;;4.25;1.64;;;;;;;-1.63;60.57;99142.55;351874;113;1961969;-71
2021/03/24 00:15:12;;;;;;;5.05;1.54;;;;;;;-1.65;61.06;99140.03;351108;113;1961924;-71
2021/03/24 00:16:18;;;;;;;4.35;1.48;;;;;;;-1.63;61.18;99142.55;350800;113;1962019;-71
2021/03/24 00:17:23;;;;;;;5.43;1.68;;;;;;;-1.61;60.81;99149.38;351059;114;1961947;-71
2021/03/24 00:18:30;;;;;;;3.56;1.48;;;;;;;-1.61;60.82;99157.32;351544;113;1961945;-71
2021/03/24 00:19:35;;;;;;;4.00;1.46;;;;;;;-1.59;60.92;99160.67;346419;113;1961967;-72
2021/03/24 00:20:45;;;;;;;3.83;1.40;;;;;;;-1.60;60.85;99161.63;304395;116;2218915;-71
2021/03/24 00:21:50;;;;;;;3.04;1.43;;;;;;;-1.64;60.82;99162.91;343968;116;1962018;-71
2021/03/24 00:22:57;;;;;;;4.67;1.44;;;;;;;-1.65;60.86;99166.51;343665;116;1962000;-70
2021/03/24 00:24:03;;;;;;;4.64;1.52;;;;;;;-1.64;60.80;99154.95;328877;116;2267956;-71
2021/03/24 00:25:09;;;;;;;4.13;1.44;;;;;;;-1.62;61.01;99155.63;341762;116;1962022;-71
2021/03/24 00:26:16;;;;;;;3.75;1.32;;;;;;;-1.59;61.06;99158.02;350451;114;1962009;-71
2021/03/24 00:27:21;;;;;;;5.18;1.63;;;;;;;-1.59;61.06;99159.81;342660;114;1961935;-71
2021/03/24 00:28:27;;;;;;;4.57;1.87;;;;;;;-1.55;60.78;99162.05;347462;114;1962068;-72
2021/03/24 00:29:32;;;;;;;3.75;1.37;;;;;;;-1.50;60.71;99168.74;348913;114;1962092;-71
2021/03/24 00:30:43;;;;;;;4.76;1.47;;;;;;;-1.48;60.68;99169.41;331900;114;1961936;-72
2021/03/24 00:31:48;;;;;;;4.14;1.46;;;;;;;-1.48;60.64;99161.47;313590;114;2058244;-72
2021/03/24 00:32:54;;;;;;;4.79;1.53;;;;;;;-1.45;60.63;99171.80;349698;114;1961975;-71
2021/03/24 00:33:59;;;;;;;3.90;1.76;;;;;;;-1.45;60.57;99161.21;350230;114;1962040;-71
2021/03/24 00:35:10;;;;;;;2.59;1.63;;;;;;;-1.46;60.50;99173.59;348815;114;1962021;-71
2021/03/24 00:36:17;;;;;;;6.77;1.41;;;;;;;-1.44;60.32;99169.00;302071;114;2886044;-71
2021/03/24 00:37:22;;;;;;;4.80;1.51;;;;;;;-1.44;60.13;99176.12;349944;114;1961992;-71
2021/03/24 00:38:27;;;;;;;4.31;2.26;;;;;;;-1.43;60.29;99172.48;349114;114;1961967;-71
2021/03/24 00:39:33;;;;;;;3.63;1.58;;;;;;;-1.45;60.21;99171.80;349698;114;1961985;-72
2021/03/24 00:40:42;;;;;;;4.49;1.44;;;;;;;-1.47;60.30;99171.11;329913;114;2371010;-72
2021/03/24 00:41:48;;;;;;;5.43;1.81;;;;;;;-1.50;60.41;99169.58;308079;114;2816949;-72
2021/03/24 00:42:53;;;;;;;4.03;1.89;;;;;;;-1.52;60.33;99171.52;332260;114;1964041;-72
2021/03/24 00:43:58;;;;;;;3.01;1.62;;;;;;;-1.52;60.53;99173.34;350426;114;1961904;-72
2021/03/24 00:45:06;;;;;;;3.92;1.66;;;;;;;-1.55;60.38;99177.94;348889;114;1961952;-72
2021/03/24 00:46:12;;;;;;;3.77;1.46;;;;;;;-1.56;60.53;99173.62;346264;114;1962066;-71
2021/03/24 00:47:17;;;;;;;4.63;1.35;;;;;;;-1.57;60.71;99173.75;353068;114;1963999;-72
2021/03/24 00:48:27;;;;;;;4.88;1.65;;;;;;;-1.60;60.56;99180.16;341452;116;1961899;-71
2021/03/24 00:49:33;;;;;;;4.71;1.82;;;;;;;-1.60;60.60;99174.04;349764;114;1961995;-72
2021/03/24 00:50:39;;;;;;;4.10;1.82;;;;;;;-1.62;60.54;99174.16;323111;114;1962022;-72
2021/03/24 00:51:45;;;;;;;4.32;1.47;;;;;;;-1.61;60.50;99172.38;348991;114;1963934;-71
2021/03/24 00:52:51;;;;;;;5.07;1.60;;;;;;;-1.60;60.42;99171.39;349083;114;1962965;-71
2021/03/24 00:53:57;;;;;;;4.07;1.37;;;;;;;-1.63;60.46;99174.33;319097;114;2567912;-71
2021/03/24 00:55:03;;;;;;;4.11;1.33;;;;;;;-1.64;60.28;99178.79;330397;114;1960887;-72
2021/03/24 00:56:09;;;;;;;4.44;1.88;;;;;;;-1.65;60.24;99171.80;349985;114;1964929;-71
2021/03/24 00:57:15;;;;;;;3.97;1.67;;;;;;;-1.62;60.14;99179.46;326177;114;2473985;-72
2021/03/24 00:58:20;;;;;;;4.41;1.72;;;;;;;-1.64;60.25;99176.14;333232;114;1962010;-72
2021/03/24 00:59:25;;;;;;;3.51;1.51;;;;;;;-1.63;60.03;99172.51;342510;116;1961887;-71
2021/03/24 01:00:35;;;;;;;3.39;1.85;;;;;;;-1.62;60.02;99179.46;349676;114;1961997;-72
2021/03/24 01:01:43;;;;;;;3.84;1.26;;;;;;;-1.64;60.24;99184.09;312243;114;2917945;-72
2021/03/24 01:02:49;;;;;;;3.46;1.49;;;;;;;-1.63;60.22;99187.56;349797;114;1961953;-72
2021/03/24 01:03:54;;;;;;;5.35;1.74;;;;;;;-1.66;60.22;99175.44;350299;114;1962041;-71
2021/03/24 01:05:03;;;;;;;3.38;2.02;;;;;;;-1.66;60.17;99185.20;349711;114;1962070;-72
2021/03/24 01:06:10;;;;;;;5.02;1.57;;;;;;;-1.67;60.11;99184.34;346940;114;1962001;-71
2021/03/24 01:07:16;;;;;;;2.93;1.33;;;;;;;-1.65;59.94;99186.86;343552;114;1963021;-71
2021/03/24 01:08:24;;;;;;;4.09;1.62;;;;;;;-1.67;59.98;99191.45;342628;116;1962044;-71
2021/03/24 01:09:30;;;;;;;2.44;1.48;;;;;;;-1.69;60.06;99196.05;349109;114;1962090;-71
2021/03/24 01:10:39;;;;;;;4.47;1.61;;;;;;;-1.73;60.15;99194.67;348866;113;1961951;-72
2021/03/24 01:11:44;;;;;;;2.97;1.51;;;;;;;-1.76;60.20;99193.13;343132;116;1961958;-72
2021/03/24 01:12:49;;;;;;;5.23;1.42;;;;;;;-1.79;60.35;99194.25;343217;116;1961892;-72
2021/03/24 01:13:55;;;;;;;5.45;1.48;;;;;;;-1.76;60.45;99193.13;350330;113;1961968;-71
2021/03/24 01:15:00;;;;;;;3.02;1.52;;;;;;;-1.73;60.11;99207.91;315408;113;2697042;-72
2021/03/24 01:16:06;;;;;;;2.93;1.33;;;;;;;-1.71;60.08;99198.02;347391;113;1962985;-72
2021/03/24 01:17:12;;;;;;;3.10;1.53;;;;;;;-1.73;60.09;99203.44;352210;113;1962017;-72
2021/03/24 01:18:19;;;;;;;4.07;1.44;;;;;;;-1.73;60.21;99202.61;351009;113;1961922;-71
2021/03/24 01:19:25;;;;;;;4.72;1.79;;;;;;;-1.76;60.11;99206.38;346843;113;1964021;-71
2021/03/24 01:20:35;;;;;;;4.90;2.22;;;;;;;-1.77;60.10;99200.25;302222;114;2877026;-71
2021/03/24 01:21:41;;;;;;;4.32;1.80;;;;;;;-1.74;60.07;99196.48;350567;113;1963053;-72
2021/03/24 01:22:46;;;;;;;3.67;1.72;;;;;;;-1.75;60.04;99210.69;317656;113;2529988;-72
2021/03/24 01:23:52;;;;;;;3.59;1.59;;;;;;;-1.77;60.10;99208.19;338965;115;1962907;-72
2021/03/24 01:24:59;;;;;;;3.68;1.51;;;;;;;-1.80;60.17;99208.47;351552;113;1961972;-72
2021/03/24 01:26:05;;;;;;;3.62;1.52;;;;;;;-1.81;60.23;99206.78;311369;115;2918035;-72
2021/03/24 01:27:10;;;;;;;3.99;1.41;;;;;;;-1.82;60.17;99212.23;320647;116;1961965;-72
2021/03/24 01:28:19;;;;;;;5.51;1.97;;;;;;;-1.85;60.36;99204.57;333572;119;1961987;-71
2021/03/24 01:29:24;;;;;;;4.09;1.76;;;;;;;-1.85;60.33;99208.05;345970;115;1962010;-72
2021/03/24 01:30:33;;;;;;;3.45;1.94;;;;;;;-1.87;60.53;99207.34;343341;115;1963940;-72
2021/03/24 01:31:38;;;;;;;3.06;1.52;;;;;;;-1.88;60.36;99212.76;343142;115;1962000;-71
2021/03/24 01:32:46;;;;;;;3.79;1.26;;;;;;;-1.89;60.55;99217.23;337846;118;1962027;-71
2021/03/24 01:33:51;;;;;;;4.64;1.76;;;;;;;-1.92;60.49;99214.86;329499;115;1961906;-71
2021/03/24 01:34:57;;;;;;;3.83;1.99;;;;;;;-1.93;60.55;99213.20;344452;115;1964976;-71
2021/03/24 01:36:03;;;;;;;6.26;1.89;;;;;;;-1.94;60.65;99218.61;344589;115;1961928;-72
2021/03/24 01:37:09;;;;;;;3.53;1.96;;;;;;;-1.94;60.83;99221.27;322924;115;2433977;-71
2021/03/24 01:38:15;;;;;;;5.20;1.97;;;;;;;-1.96;60.73;99221.38;319962;118;1962896;-72
2021/03/24 01:39:20;;;;;;;4.81;1.76;;;;;;;-1.96;60.78;99220.55;344222;115;1961902;-72
2021/03/24 01:40:31;;;;;;;4.62;2.07;;;;;;;-1.95;61.01;99223.08;322679;115;2455980;-72
2021/03/24 01:41:36;;;;;;;4.61;1.91;;;;;;;-1.94;60.88;99226.55;311018;115;2671062;-71
2021/03/24 01:42:41;;;;;;;3.28;1.91;;;;;;;-1.94;60.85;99226.55;316692;115;1961974;-71
2021/03/24 01:43:47;;;;;;;4.83;1.96;;;;;;;-1.96;60.79;99223.20;344800;115;1963945;-72
2021/03/24 01:45:03;;;;;;;5.33;1.99;;;;;;;-1.96;60.88;99231.14;344607;115;1964033;-71
2021/03/24 01:46:22;;;;;;;3.98;1.97;;;;;;;-2.00;60.88;99231.42;303406;115;2844960;-71
2021/03/24 01:47:30;;;;;;;4.09;1.74;;;;;;;-1.99;60.96;99225.14;314911;115;2602848;-71
2021/03/24 01:48:36;;;;;;;4.16;1.73;;;;;;;-1.93;61.00;99228.22;345864;115;1959758;-71
2021/03/24 01:49:42;;;;;;;5.66;2.05;;;;;;;-2.07;60.98;99211.75;313300;115;2639938;-71
2021/03/24 01:50:48;;;;;;;5.88;2.12;;;;;;;-2.00;61.11;99231.42;339854;115;1960849;-71
2021/03/24 01:51:58;;;;;;;6.01;2.32;;;;;;;-2.06;61.03;99213.45;345890;115;1961772;-71
2021/03/24 01:53:04;;;;;;;6.43;3.38;;;;;;;-1.97;61.09;99224.19;345345;115;1960808;-71
2021/03/24 01:54:13;;;;;;;4.81;2.14;;;;;;;-1.97;61.10;99232.95;300344;113;2098165;-70
2021/03/24 01:55:20;;;;;;;5.81;2.56;;;;;;;-1.96;61.06;99236.44;345467;117;1960783;-72
2021/03/24 01:56:28;;;;;;;4.60;2.05;;;;;;;-2.00;60.98;99231.42;345512;115;1961107;-71
2021/03/24 01:57:33;;;;;;;5.38;2.20;;;;;;;-2.01;61.02;99232.41;330218;115;2292977;-71
2021/03/24 01:58:38;;;;;;;5.45;2.32;;;;;;;-2.02;61.09;99230.71;324156;115;1964026;-72
2021/03/24 01:59:44;;;;;;;7.41;2.60;;;;;;;-2.03;61.13;99228.22;344281;115;1962014;-72
2021/03/24 02:00:51;;;;;;;7.13;3.34;;;;;;;-2.06;61.30;99231.14;343822;115;1964964;-71
2021/03/24 02:01:58;;;;;;;5.13;2.17;;;;;;;-2.07;61.49;99230.28;332042;118;1964024;-71
2021/03/24 02:03:05;;;;;;;6.48;2.24;;;;;;;-2.08;61.55;99228.63;344014;115;1962021;-72
2021/03/24 02:04:11;;;;;;;7.94;2.86;;;;;;;-2.10;61.39;99233.20;336871;115;1963952;-71
2021/03/24 02:05:16;;;;;;;10.02;4.18;;;;;;;-2.12;61.33;99229.02;345154;115;1962021;-72
2021/03/24 02:06:51;;;;;;;9.83;3.85;;;;;;;-2.13;61.50;99230.84;317760;115;2539992;-71
2021/03/24 02:08:13;;;;;;;8.53;3.11;;;;;;;-2.13;61.84;99230.00;348870;109;1961003;-71
2021/03/24 02:09:28;;;;;;;7.80;3.35;;;;;;;-2.13;61.53;99227.36;348025;114;1961969;-71
2021/03/24 02:10:49;;;;;;;10.82;3.32;;;;;;;-2.14;61.49;99230.95;309715;114;2950015;-71
2021/03/24 02:12:16;;;;;;;11.36;4.43;;;;;;;-2.16;61.77;99236.41;348700;114;1963996;-71
2021/03/24 02:13:28;;;;;;;7.56;3.68;;;;;;;-2.10;61.80;99227.08;348339;114;1962034;-70
2021/03/24 02:14:40;;;;;;;7.14;2.82;;;;;;;-2.08;61.44;99233.08;331930;114;2225985;-72
2021/03/24 02:15:49;;;;;;;6.47;2.75;;;;;;;-2.10;61.86;99233.20;347476;114;1962987;-72
2021/03/24 02:16:57;;;;;;;6.20;2.19;;;;;;;-2.08;61.55;99236.56;347427;114;1961973;-71
2021/03/24 02:18:04;;;;;;;6.83;2.39;;;;;;;-2.08;61.48;99236.56;330345;114;1961730;-71
2021/03/24 02:19:30;;;;;;;6.10;2.36;;;;;;;-2.06;61.39;99236.44;324981;114;2446983;-71
2021/03/24 02:20:46;;;;;;;6.60;2.96;;;;;;;-2.09;61.45;99231.39;345583;114;1962036;-72
2021/03/24 02:21:56;;;;;;;5.39;2.13;;;;;;;-2.12;61.41;99242.25;338841;117;1962210;-71
2021/03/24 02:23:10;;;;;;;5.91;2.66;;;;;;;-2.14;61.64;99239.76;346942;114;1961971;-72
2021/03/24 02:24:35;;;;;;;5.32;2.31;;;;;;;-2.14;61.53;99239.76;347708;114;1962932;-72
2021/03/24 02:25:46;;;;;;;5.34;2.11;;;;;;;-2.18;61.51;99243.63;347167;114;1961999;-71
2021/03/24 02:27:15;;;;;;;6.11;2.63;;;;;;;-2.20;61.59;99232.34;307261;114;2138203;-72
2021/03/24 02:28:22;;;;;;;6.44;3.02;;;;;;;-2.22;61.64;99237.78;309997;114;2916000;-71
2021/03/24 02:29:30;;;;;;;7.87;3.28;;;;;;;-2.18;61.68;99246.28;346976;114;1962047;-71
2021/03/24 02:30:39;;;;;;;6.21;2.32;;;;;;;-2.17;61.66;99234.74;348025;114;1961958;-72
2021/03/24 02:31:49;;;;;;;5.73;1.99;;;;;;;-2.17;61.55;99239.17;327372;114;1961985;-73
2021/03/24 02:33:15;;;;;;;3.43;1.81;;;;;;;-2.18;61.63;99246.28;345191;114;1962072;31
2021/03/24 02:34:25;;;;;;;4.12;1.94;;;;;;;-2.15;61.63;99245.17;347280;114;1961938;-72
2021/03/24 02:35:34;;;;;;;7.14;2.25;;;;;;;-2.16;61.50;99246.16;350009;114;1962989;-72
2021/03/24 02:36:43;;;;;;;5.76;2.14;;;;;;;-2.17;61.49;99247.97;315915;114;2678039;-72
2021/03/24 02:37:51;;;;;;;4.73;2.05;;;;;;;-2.17;61.51;99249.75;335847;120;1961936;-71
2021/03/24 02:38:59;;;;;;;5.24;1.87;;;;;;;-2.18;61.64;99246.28;306378;116;2163492;-72
2021/03/24 02:40:09;;;;;;;4.23;1.86;;;;;;;-2.16;61.70;99246.16;324406;114;2226031;-71
2021/03/24 02:41:16;;;;;;;6.07;1.76;;;;;;;-2.17;61.66;99255.05;314173;115;2221018;-72
2021/03/24 02:42:22;;;;;;;5.28;2.43;;;;;;;-2.16;61.57;99251.45;345517;116;1961955;-72
2021/03/24 02:43:30;;;;;;;6.21;2.38;;;;;;;-2.14;61.70;99252.98;323593;116;2486879;-72
2021/03/24 02:44:39;;;;;;;7.47;2.53;;;;;;;-2.10;61.58;99248.25;345953;115;1962020;-71
2021/03/24 02:45:46;;;;;;;4.86;2.06;;;;;;;-2.08;61.50;99249.79;346541;116;1961994;-71
2021/03/24 02:46:54;;;;;;;4.98;2.34;;;;;;;-2.08;61.51;99241.85;308148;115;2227684;-71
2021/03/24 02:48:10;;;;;;;5.04;2.22;;;;;;;-2.08;61.42;99255.08;346400;116;1961952;-71
2021/03/24 02:49:17;;;;;;;5.90;2.02;;;;;;;-2.09;61.46;99248.13;342137;116;1962003;-71
2021/03/24 02:50:24;;;;;;;4.37;1.67;;;;;;;-2.05;61.34;99246.03;343423;116;1963028;-72
2021/03/24 02:51:30;;;;;;;6.83;2.11;;;;;;;-2.03;61.46;99249.39;320576;114;2200914;-72
2021/03/24 02:52:38;;;;;;;5.18;1.78;;;;;;;-2.03;61.27;99255.52;347182;114;1962066;-71
2021/03/24 02:53:44;;;;;;;5.22;2.05;;;;;;;-2.00;61.15;99251.77;341065;116;1961921;-71
2021/03/24 02:54:51;;;;;;;6.48;2.07;;;;;;;-1.97;61.04;99262.08;345861;116;1961995;-71
2021/03/24 02:56:00;;;;;;;7.48;2.82;;;;;;;-1.95;60.95;99264.59;324303;115;2217437;-72
2021/03/24 02:57:06;;;;;;;5.45;2.16;;;;;;;-1.96;60.88;99262.91;314304;115;2660927;-71
2021/03/24 02:58:13;;;;;;;4.76;1.73;;;;;;;-1.99;61.02;99250.78;346663;115;1961921;-71
2021/03/24 02:59:19;;;;;;;6.56;2.57;;;;;;;-1.98;60.99;99252.47;346747;116;1962030;-71
2021/03/24 03:00:27;;;;;;;7.29;2.36;;;;;;;-1.96;61.03;99261.09;345377;115;1962023;-71
2021/03/24 03:02:03;;;;;;;6.04;2.98;;;;;;;-1.92;60.84;99253.73;347175;116;1962009;-71
2021/03/24 03:03:18;;;;;;;9.16;2.92;;;;;;;-1.90;60.81;99259.73;346392;116;1962001;-71
2021/03/24 03:04:27;;;;;;;5.54;2.48;;;;;;;-1.90;60.78;99262.37;346989;116;1960941;-71
2021/03/24 03:05:35;;;;;;;7.04;2.40;;;;;;;-1.90;60.76;99262.37;346690;115;1961948;-71
2021/03/24 03:06:43;;;;;;;9.49;2.78;;;;;;;-1.90;60.66;99267.67;342795;116;1961909;-71
2021/03/24 03:07:52;;;;;;;7.33;2.61;;;;;;;-1.90;60.64;99267.67;346739;116;1963964;-71
2021/03/24 03:09:11;;;;;;;6.53;2.58;;;;;;;-1.92;60.68;99270.45;347448;115;1961961;-72
2021/03/24 03:10:22;;;;;;;6.05;2.46;;;;;;;-1.93;60.75;99268.78;330017;115;2900931;-71
2021/03/24 03:11:37;;;;;;;5.73;2.62;;;;;;;-1.92;60.67;99269.61;323679;116;2476003;-72
2021/03/24 03:12:54;;;;;;;9.46;3.42;;;;;;;-1.92;60.64;99269.61;336781;115;2205909;-71
2021/03/24 03:14:13;;;;;;;7.28;2.98;;;;;;;-1.92;60.63;99273.09;345495;115;1962965;-72
2021/03/24 03:15:24;;;;;;;8.70;3.24;;;;;;;-1.94;60.63;99275.03;342377;115;1962081;-71
2021/03/24 03:16:35;;;;;;;;;;;;;;;-1.98;60.77;99271.00;327806;116;2220984;-70
2021/03/24 03:17:43;;;;;;;8.73;2.76;;;;;;;-1.98;60.80;99271.00;342645;116;1960936;-72
2021/03/24 03:19:04;;;;;;;7.48;2.73;;;;;;;-2.00;60.82;99268.47;328285;115;2387515;-71
2021/03/24 03:20:20;;;;;;;6.48;2.37;;;;;;;-2.01;60.82;99272.11;346707;115;1961994;-72
2021/03/24 03:21:33;;;;;;;6.14;2.55;;;;;;;-2.03;60.89;99270.56;346992;115;1961935;-72
2021/03/24 03:22:47;;;;;;;8.08;2.43;;;;;;;-2.01;60.82;99274.75;346551;116;1962857;-72
2021/03/24 03:23:55;;;;;;;5.15;2.46;;;;;;;-2.01;60.80;99268.63;346840;115;1961901;-72
2021/03/24 03:25:10;;;;;;;4.94;2.44;;;;;;;-2.04;60.95;99276.81;314192;115;2665983;-72
2021/03/24 03:26:19;;;;;;;4.83;2.29;;;;;;;-2.05;60.92;99275.98;339453;116;1962928;-71
2021/03/24 03:27:27;;;;;;;5.73;2.38;;;;;;;-2.06;60.83;99278.78;332897;116;2283009;-71
2021/03/24 03:28:35;;;;;;;5.96;2.37;;;;;;;-2.07;60.83;99277.09;346369;114;1963951;-72
2021/03/24 03:29:43;;;;;;;6.53;3.12;;;;;;;-2.09;61.01;99276.37;346917;115;1961957;-72
2021/03/24 03:30:51;;;;;;;7.61;2.30;;;;;;;-2.11;61.13;99279.17;344915;116;1962011;-72
2021/03/24 03:31:59;;;;;;;8.52;2.58;;;;;;;-2.10;61.07;99275.55;318994;116;2233965;-71
2021/03/24 03:33:08;;;;;;;6.54;2.56;;;;;;;-2.10;61.11;99277.36;347547;116;1962014;-72
2021/03/24 03:34:17;;;;;;;9.78;3.00;;;;;;;-2.10;61.01;99286.13;347799;115;1961973;-71
2021/03/24 03:35:27;;;;;;;5.02;2.49;;;;;;;-2.12;61.04;99271.36;346387;114;1961954;-71
2021/03/24 03:36:36;;;;;;;6.69;2.97;;;;;;;-2.14;61.13;99284.74;347039;114;1963025;-71
2021/03/24 03:37:42;;;;;;;5.94;2.09;;;;;;;-2.15;61.22;99285.70;346334;115;1961987;-71
2021/03/24 03:38:49;;;;;;;8.01;3.06;;;;;;;-2.17;61.20;99287.66;326799;114;2418951;-71
2021/03/24 03:39:56;;;;;;;7.88;3.34;;;;;;;-2.20;61.45;99279.97;346330;115;1963021;-71
2021/03/24 03:41:05;;;;;;;8.56;3.34;;;;;;;-2.18;61.42;99285.97;320404;114;2193009;-71
2021/03/24 03:42:12;;;;;;;6.04;2.95;;;;;;;-2.18;61.38;99291.26;330835;116;2893978;-71
2021/03/24 03:43:21;;;;;;;7.20;3.24;;;;;;;-2.19;61.41;99283.47;346177;115;1960731;-71
2021/03/24 03:44:28;;;;;;;8.64;4.03;;;;;;;-2.19;61.40;99288.77;346167;116;1962059;-70
2021/03/24 03:45:37;;;;;;;18.58;3.70;;;;;;;-2.18;61.38;99285.97;304860;115;2836018;-71
2021/03/24 03:46:47;;;;;;;9.58;3.26;;;;;;;-2.20;61.44;99287.91;331992;115;2203999;-71
2021/03/24 03:47:53;;;;;;;9.18;3.77;;;;;;;-2.22;61.54;99287.22;327499;115;2395025;-71
2021/03/24 03:49:00;;;;;;;12.43;4.59;;;;;;;-2.25;61.58;99290.11;347131;116;1962043;-71
2021/03/24 03:50:09;;;;;;;6.30;2.98;;;;;;;-2.27;61.67;99289.43;345993;115;1962040;-72
2021/03/24 03:51:17;;;;;;;7.29;3.26;;;;;;;-2.28;61.75;99283.28;342371;116;1962027;-72
2021/03/24 03:52:44;;;;;;;10.91;4.16;;;;;;;-2.27;61.81;99292.08;336098;118;1964000;-71
2021/03/24 03:53:56;;;;;;;7.18;2.72;;;;;;;-2.29;62.00;99288.72;285551;124;2191971;-75
2021/03/24 03:55:32;;;;;;;9.16;3.39;;;;;;;-2.31;61.98;99290.66;326643;122;1964957;-71
2021/03/24 03:56:48;;;;;;;8.87;3.14;;;;;;;-2.30;62.24;99300.25;303427;115;2092516;-71
2021/03/24 03:57:57;;;;;;;7.42;3.06;;;;;;;-2.31;62.06;99299.42;347333;114;1961996;-72
2021/03/24 03:59:27;;;;;;;5.54;2.30;;;;;;;-2.31;62.19;99295.94;308113;114;2158548;-71
2021/03/24 04:00:43;;;;;;;7.47;2.93;;;;;;;-2.28;62.14;99299.15;348113;114;1962037;-72
2021/03/24 04:01:55;;;;;;;8.31;3.31;;;;;;;-2.27;62.23;99302.66;349796;114;1961943;-71
2021/03/24 04:03:05;;;;;;;;;;;;;;;-2.28;62.12;99306.25;332011;114;1960997;-71
2021/03/24 04:04:14;;;;;;;8.31;2.75;;;;;;;-2.30;62.57;99302.90;349662;114;1960986;-71
2021/03/24 04:05:23;;;;;;;5.24;2.56;;;;;;;-2.27;62.51;99300.84;345509;114;1962029;-72
2021/03/24 04:06:38;;;;;;;6.47;3.09;;;;;;;-2.24;62.19;99312.97;347960;114;1963014;-73
2021/03/24 04:08:00;;;;;;;8.52;3.34;;;;;;;-2.25;62.23;99304.20;349096;114;1963988;-71
2021/03/24 04:09:09;;;;;;;5.71;3.04;;;;;;;-2.23;62.28;99311.98;347682;114;1965050;-72
2021/03/24 04:10:16;;;;;;;8.07;2.47;;;;;;;-2.24;62.18;99302.39;311823;114;2197933;-72
2021/03/24 04:11:24;;;;;;;6.36;2.36;;;;;;;-2.25;62.33;99306.84;346790;114;1962998;-71
2021/03/24 04:12:31;;;;;;;5.64;2.29;;;;;;;-2.25;62.39;99311.27;331980;114;2319950;-71
2021/03/24 04:13:44;;;;;;;4.38;2.12;;;;;;;-2.25;62.27;99317.42;348464;114;1961999;-71
2021/03/24 04:14:51;;;;;;;8.86;3.27;;;;;;;-2.23;62.41;99312.82;348804;114;1962012;-72
2021/03/24 04:15:59;;;;;;;7.95;3.93;;;;;;;-2.20;62.35;99306.42;311828;114;2917966;-72
2021/03/24 04:17:09;;;;;;;8.10;3.01;;;;;;;-2.17;62.27;99314.13;348685;114;1961929;-71
2021/03/24 04:18:19;;;;;;;7.72;2.96;;;;;;;-2.16;62.32;99310.49;350204;114;1961987;-73
2021/03/24 04:19:32;;;;;;;7.76;2.99;;;;;;;-2.16;62.26;99309.66;347651;114;1961954;-72
2021/03/24 04:20:41;;;;;;;5.56;2.62;;;;;;;-2.17;62.35;99308.83;348192;114;1962967;-71
2021/03/24 04:21:50;;;;;;;9.11;3.01;;;;;;;-2.15;62.23;99311.33;348871;112;1961893;-70
2021/03/24 04:22:57;;;;;;;9.37;3.65;;;;;;;-2.14;62.17;99312.98;348995;114;1962963;-71
2021/03/24 04:24:16;;;;;;;10.44;4.07;;;;;;;-2.15;62.18;99316.62;313549;114;2715028;-71
2021/03/24 04:25:25;;;;;;;8.93;2.98;;;;;;;-2.12;62.23;99318.99;348041;114;1961988;-71
2021/03/24 04:26:41;;;;;;;7.19;3.24;;;;;;;-2.11;62.13;99323.33;315035;114;2642082;-71
2021/03/24 04:27:49;;;;;;;10.76;4.13;;;;;;;-2.09;62.00;99322.23;326107;114;1962032;-72
2021/03/24 04:28:58;;;;;;;12.06;5.07;;;;;;;-2.07;62.00;99328.20;330999;114;2890853;-71
2021/03/24 04:30:07;;;;;;;11.47;4.96;;;;;;;-2.05;62.01;99323.62;347876;114;1963041;-72
2021/03/24 04:31:15;;;;;;;8.08;3.58;;;;;;;-2.00;62.08;99326.70;349367;114;1962000;-71
2021/03/24 04:32:22;;;;;;;11.34;3.59;;;;;;;-1.99;61.91;99325.72;348548;114;1964031;-71
2021/03/24 04:33:28;;;;;;;8.93;3.22;;;;;;;-1.97;61.86;99333.54;331737;114;2328994;-71
2021/03/24 04:34:35;;;;;;;9.52;4.06;;;;;;;-1.96;61.96;99321.14;349146;114;1964076;-71
2021/03/24 04:35:43;;;;;;;9.27;3.60;;;;;;;-1.95;61.89;99328.13;318912;114;2240991;-71
2021/03/24 04:37:07;;;;;;;10.40;4.12;;;;;;;-1.92;61.79;99328.68;348494;114;1961971;-71
2021/03/24 04:38:34;;;;;;;12.47;3.28;;;;;;;-1.90;61.72;99331.20;347498;114;1961914;-71
2021/03/24 04:39:44;;;;;;;7.23;3.48;;;;;;;-1.85;61.63;99321.05;318468;114;1961990;-72
2021/03/24 04:40:54;;;;;;;11.75;3.35;;;;;;;-1.83;61.52;99327.86;348946;114;1965033;-73
2021/03/24 04:42:03;;;;;;;16.29;6.49;;;;;;;-1.99;61.57;99301.06;342013;114;1963052;-72
2021/03/24 04:43:11;;;;;;;9.24;4.24;;;;;;;-1.78;61.56;99335.41;303624;114;2225031;-73
2021/03/24 04:44:21;;;;;;;12.63;4.08;;;;;;;-1.73;61.43;99333.19;334277;114;2280033;-72
2021/03/24 04:45:38;;;;;;;11.91;3.83;;;;;;;-1.69;61.33;99337.25;333536;114;2323022;-72
2021/03/24 04:46:47;;;;;;;9.37;3.69;;;;;;;-1.66;61.16;99339.63;343845;114;1962911;-72
2021/03/24 04:47:57;;;;;;;8.07;3.34;;;;;;;-1.63;60.84;99347.30;348791;114;1961888;-72
2021/03/24 04:49:06;;;;;;;9.39;3.58;;;;;;;-1.60;60.68;99335.59;349159;114;1961973;-72
2021/03/24 04:50:22;;;;;;;7.17;2.96;;;;;;;-1.56;60.64;99339.66;349327;114;1961878;-72
2021/03/24 04:51:34;;;;;;;9.27;3.32;;;;;;;-1.52;60.47;99348.16;315463;114;2663953;-71
2021/03/24 04:52:40;;;;;;;13.43;3.61;;;;;;;-1.46;60.31;99343.13;349200;114;1961991;-72
2021/03/24 04:53:49;;;;;;;14.17;5.62;;;;;;;-1.44;60.21;99343.84;349644;114;1962011;-72
2021/03/24 04:54:59;;;;;;;12.73;4.18;;;;;;;-1.43;60.16;99345.53;348480;114;1961995;-72
2021/03/24 04:56:06;;;;;;;16.56;4.09;;;;;;;-1.39;60.14;99346.09;347980;114;1962006;-71
2021/03/24 04:57:15;;;;;;;8.19;3.43;;;;;;;-1.37;59.83;99349.44;348761;114;1961947;-72
2021/03/24 04:58:35;;;;;;;9.83;3.25;;;;;;;-1.35;59.76;99353.63;347595;114;1961952;-72
2021/03/24 04:59:47;;;;;;;13.68;3.88;;;;;;;-1.34;59.70;99350.00;346352;113;1962006;-71
2021/03/24 05:00:59;;;;;;;11.04;3.59;;;;;;;-1.33;59.71;99358.77;325007;115;2365009;-71
2021/03/24 05:02:08;;;;;;;11.47;3.41;;;;;;;-1.30;59.43;99353.20;334913;117;1962022;-71
2021/03/24 05:03:18;;;;;;;14.44;4.11;;;;;;;-1.27;59.49;99360.89;334153;118;1963961;-71
2021/03/24 05:04:36;;;;;;;8.72;3.66;;;;;;;-1.24;59.31;99360.61;339603;115;1965000;-72
2021/03/24 05:05:48;;;;;;;13.42;4.77;;;;;;;-1.19;59.29;99366.34;337152;115;1963004;-71
2021/03/24 05:06:57;;;;;;;9.84;3.36;;;;;;;-1.14;59.09;99358.81;346208;115;1962084;-72
2021/03/24 05:08:13;;;;;;;10.03;2.58;;;;;;;-1.11;58.87;99358.53;345178;115;1963058;-71
2021/03/24 05:09:19;;;;;;;8.37;3.15;;;;;;;-1.07;58.90;99364.38;331329;115;2291987;-71
2021/03/24 05:10:28;;;;;;;9.01;3.07;;;;;;;-1.02;58.62;99361.32;345861;109;1961932;-70
2021/03/24 05:12:01;;;;;;;12.62;3.78;;;;;;;-0.95;58.14;99362.45;355612;111;1963047;-71
2021/03/24 05:13:19;;;;;;;9.55;3.23;;;;;;;-0.89;57.78;99359.23;333108;114;2200973;-71
2021/03/24 05:14:42;;;;;;;8.27;2.82;;;;;;;-0.81;57.49;99355.88;333674;113;2862996;-73
2021/03/24 05:15:57;;;;;;;10.01;3.12;;;;;;;-0.74;56.86;99367.57;355347;111;1962017;-71
2021/03/24 05:17:17;;;;;;;7.64;2.96;;;;;;;-0.71;57.15;99362.02;357666;111;1962009;-72
2021/03/24 05:18:25;;;;;;;10.17;3.19;;;;;;;-0.65;57.06;99357.95;357715;111;1961950;-72
2021/03/24 05:19:32;;;;;;;8.80;2.83;;;;;;;-0.59;56.79;99360.03;357350;111;1962052;-73
2021/03/24 05:20:48;;;;;;;11.09;3.20;;;;;;;-0.55;56.89;99353.47;342853;115;1961014;-72